Time;durP1;ratioP1;P1;durP2;ratioP2;P2;SDS_P1;SDS_P2;PMS_P1;PMS_P2;Temp;Humidity;BMP_temperature;BMP_pressure;BME280_temperature;BME280_humidity;BME280_pressure;Samples;Min_cycle;Max_cycle;Signal;HPM_P1;HPM_P2
2022/01/02 00:01:51;;;;;;;8.48;6.05;;;308.10;2304.00;;;;;;5041376;28;20131;-59
2022/01/02 00:04:19;;;;;;;10.48;6.35;;;308.10;2304.00;;;;;;5042292;28;20403;-61
2022/01/02 00:06:47;;;;;;;8.85;6.35;;;308.10;2304.00;;;;;;5041930;28;20035;-61
2022/01/02 00:09:19;;;;;;;15.85;9.68;;;308.00;2304.00;;;;;;5040932;28;20056;-61
2022/01/02 00:11:46;;;;;;;19.77;12.48;;;307.90;2304.00;;;;;;5041446;28;20016;-61
2022/01/02 00:14:20;;;;;;;16.25;10.63;;;307.90;2304.00;;;;;;5042977;28;20021;-61
2022/01/02 00:16:46;;;;;;;18.10;12.07;;;307.80;2304.00;;;;;;5042610;28;20013;-61
2022/01/02 00:19:28;;;;;;;18.10;10.80;;;307.70;2304.00;;;;;;5042090;28;20025;-59
2022/01/02 00:21:58;;;;;;;13.20;9.13;;;307.70;2304.00;;;;;;5041347;28;20068;-62
2022/01/02 00:24:26;;;;;;;22.10;9.20;;;307.80;2304.00;;;;;;5041989;28;20474;-63
2022/01/02 00:26:54;;;;;;;50.22;45.22;;;307.70;2304.00;;;;;;5042999;28;20101;-62
2022/01/02 00:29:21;;;;;;;13.05;8.85;;;307.70;2304.00;;;;;;5043260;28;20521;-62
2022/01/02 00:31:48;;;;;;;17.30;11.05;;;307.60;2304.00;;;;;;5041084;28;20018;-61
2022/01/02 00:34:15;;;;;;;10.18;7.88;;;307.60;2304.00;;;;;;5041432;28;20590;-61
2022/01/02 00:36:41;;;;;;;12.68;8.38;;;307.60;2304.00;;;;;;5042860;28;20128;-62
2022/01/02 00:39:07;;;;;;;11.77;6.72;;;307.60;2304.00;;;;;;5040903;28;20101;-61
2022/01/02 00:41:43;;;;;;;9.38;6.45;;;307.60;2304.00;;;;;;5041447;28;20108;-61
2022/01/02 00:44:35;;;;;;;9.57;5.80;;;307.60;2304.00;;;;;;5041271;28;20092;-61
2022/01/02 00:47:23;;;;;;;7.53;5.43;;;307.50;2304.00;;;;;;5039783;28;20036;-62
2022/01/02 00:50:12;;;;;;;9.32;7.45;;;307.50;2304.00;;;;;;5039720;28;20048;-61
2022/01/02 00:52:41;;;;;;;10.98;7.95;;;307.40;2304.00;;;;;;5042387;28;20032;-60
2022/01/02 00:55:10;;;;;;;11.23;6.88;;;307.40;2304.00;;;;;;5035126;28;20100;-60
2022/01/02 00:57:39;;;;;;;9.82;6.15;;;307.30;2304.00;;;;;;5032658;28;20030;-63
2022/01/02 01:00:05;;;;;;;10.93;7.75;;;307.30;2304.00;;;;;;5032366;28;20061;-62
2022/01/02 01:02:40;;;;;;;9.68;7.13;;;307.20;2304.00;;;;;;5032638;28;20131;-60
2022/01/02 01:05:08;;;;;;;12.50;7.72;;;307.30;2304.00;;;;;;5032511;28;20483;-61
2022/01/02 01:07:35;;;;;;;14.52;7.68;;;307.20;2304.00;;;;;;5032672;28;20053;-61
2022/01/02 01:10:04;;;;;;;12.82;7.32;;;282.50;2278.40;;;;;;5032577;28;20041;-61
2022/01/02 01:12:30;;;;;;;11.95;7.90;;;282.40;2278.40;;;;;;5032382;28;20021;-61
2022/01/02 01:14:56;;;;;;;11.30;7.38;;;282.50;2278.40;;;;;;5032581;28;20029;-61
2022/01/02 01:17:22;;;;;;;10.20;6.88;;;282.50;2278.40;;;;;;5032473;28;20053;-61
2022/01/02 01:19:51;;;;;;;9.52;5.68;;;282.50;2278.40;;;;;;5032334;28;20026;-62
2022/01/02 01:22:17;;;;;;;11.07;7.20;;;282.40;2278.40;;;;;;5032189;28;20014;-61
2022/01/02 01:24:43;;;;;;;11.20;7.82;;;282.30;2278.40;;;;;;5032358;28;20032;-61
2022/01/02 01:27:09;;;;;;;14.98;10.13;;;282.40;2278.40;;;;;;5032257;28;20100;-61
2022/01/02 01:29:36;;;;;;;11.13;7.38;;;282.50;2278.40;;;;;;5031953;28;20049;-61
2022/01/02 01:32:06;;;;;;;11.70;8.35;;;282.50;2278.40;;;;;;5032187;28;20030;-61
2022/01/02 01:34:32;;;;;;;11.40;7.15;;;282.40;2278.40;;;;;;5032143;28;20484;-60
2022/01/02 01:36:58;;;;;;;10.05;7.40;;;282.40;2278.40;;;;;;5031940;28;20226;-61
2022/01/02 01:39:24;;;;;;;10.07;6.85;;;282.50;2278.40;;;;;;5031982;28;20428;-61
2022/01/02 01:41:52;;;;;;;11.43;7.57;;;282.50;2278.40;;;;;;5031641;28;20052;-61
2022/01/02 01:46:47;;;;;;;9.80;6.25;;;307.20;2304.00;;;;;;5031879;28;20025;-61
2022/01/02 01:49:14;;;;;;;11.32;6.95;;;307.20;2304.00;;;;;;5031669;28;20042;-61
2022/01/02 01:51:40;;;;;;;9.55;7.47;;;282.50;2278.40;;;;;;5031898;28;20026;-61
2022/01/02 01:54:06;;;;;;;10.45;8.30;;;282.50;2278.40;;;;;;5031601;28;20036;-61
2022/01/02 01:56:32;;;;;;;13.65;8.88;;;282.40;2278.40;;;;;;5031767;28;20018;-61
2022/01/02 01:58:58;;;;;;;13.50;7.78;;;282.40;2278.40;;;;;;5031454;28;20238;-61
2022/01/02 02:01:23;;;;;;;13.68;8.48;;;282.40;2278.40;;;;;;5030968;28;20045;-61
2022/01/02 02:03:49;;;;;;;11.40;7.05;;;282.50;2278.40;;;;;;5031507;28;20037;-61
2022/01/02 02:06:15;;;;;;;11.80;8.02;;;282.50;2278.40;;;;;;5031682;28;20105;-61
2022/01/02 02:08:41;;;;;;;10.75;6.82;;;282.50;2278.40;;;;;;5031500;28;20480;-61
2022/01/02 02:11:06;;;;;;;76.20;49.60;;;282.50;2278.40;;;;;;5031347;28;20108;-60
2022/01/02 02:13:33;;;;;;;102.82;67.50;;;281.90;2278.40;;;;;;5031357;28;20506;-61
2022/01/02 02:16:00;;;;;;;66.60;41.90;;;256.80;2252.80;;;;;;5030984;28;20527;-61
2022/01/02 02:18:26;;;;;;;42.75;26.17;;;256.60;2252.80;;;;;;5031055;28;20026;-62
2022/01/02 02:20:51;;;;;;;20.60;12.38;;;256.40;2252.80;;;;;;5031367;28;20036;-61
2022/01/02 02:23:17;;;;;;;22.88;15.80;;;256.50;2252.80;;;;;;5031049;28;20021;-61
2022/01/02 02:25:43;;;;;;;20.27;14.13;;;256.60;2252.80;;;;;;5031282;28;20029;-61
2022/01/02 02:28:13;;;;;;;18.77;11.50;;;256.60;2252.80;;;;;;5030903;28;20468;-61
2022/01/02 02:30:41;;;;;;;17.85;10.75;;;256.60;2252.80;;;;;;5030730;28;20048;-61
2022/01/02 02:33:08;;;;;;;16.27;10.00;;;256.60;2252.80;;;;;;5031019;28;20376;-61
2022/01/02 02:35:37;;;;;;;10.63;6.85;;;256.60;2252.80;;;;;;5031062;28;20041;-61
2022/01/02 02:38:04;;;;;;;9.25;5.97;;;256.60;2252.80;;;;;;5030991;28;20021;-61
2022/01/02 02:40:31;;;;;;;9.18;5.55;;;256.70;2252.80;;;;;;5030952;28;20404;-61
2022/01/02 02:43:06;;;;;;;7.80;6.47;;;256.60;2252.80;;;;;;5030625;28;20570;-61
2022/01/02 02:51:22;;;;;;;9.80;5.20;;;256.60;2252.80;;;;;;5030910;28;20045;-61
2022/01/02 02:53:49;;;;;;;7.10;5.15;;;256.60;2252.80;;;;;;5030627;28;20068;-61
2022/01/02 02:56:20;;;;;;;9.18;5.97;;;256.60;2252.80;;;;;;5030427;28;20476;-61
2022/01/02 02:58:49;;;;;;;12.27;6.82;;;256.50;2252.80;;;;;;5030490;28;20025;-60
2022/01/02 03:01:20;;;;;;;10.07;6.50;;;256.50;2252.80;;;;;;5030103;28;20060;-61
2022/01/02 03:03:46;;;;;;;9.35;6.18;;;256.50;2252.80;;;;;;5030279;28;20021;-61
2022/01/02 03:06:13;;;;;;;9.23;6.68;;;256.50;2252.80;;;;;;5030567;28;20052;-61
2022/01/02 03:08:41;;;;;;;8.77;5.57;;;256.50;2252.80;;;;;;5030588;28;20099;-61
2022/01/02 03:11:12;;;;;;;9.07;7.10;;;256.50;2252.80;;;;;;5030419;28;20553;-61
2022/01/02 03:13:38;;;;;;;7.93;5.07;;;256.40;2252.80;;;;;;5029719;28;20038;-60
2022/01/02 03:16:05;;;;;;;8.88;5.90;;;256.50;2252.80;;;;;;5030330;28;20028;-61
2022/01/02 03:18:31;;;;;;;8.05;6.10;;;256.50;2252.80;;;;;;5030380;28;20593;-60
2022/01/02 03:20:57;;;;;;;9.70;6.60;;;256.50;2252.80;;;;;;5029037;28;20040;-61
2022/01/02 03:23:22;;;;;;;7.43;5.68;;;256.50;2252.80;;;;;;5030281;28;20464;-60
2022/01/02 03:25:48;;;;;;;8.63;5.32;;;256.40;2252.80;;;;;;5030340;28;20029;-60
2022/01/02 03:28:14;;;;;;;9.70;5.60;;;256.40;2252.80;;;;;;5030237;28;20021;-61
2022/01/02 03:30:41;;;;;;;7.43;5.25;;;256.20;2252.80;;;;;;5030207;28;20033;-62
2022/01/02 03:33:07;;;;;;;8.00;4.65;;;256.20;2252.80;;;;;;5030121;28;20044;-61
2022/01/02 03:35:32;;;;;;;9.75;4.30;;;256.20;2252.80;;;;;;5030178;28;20479;-62
2022/01/02 03:37:58;;;;;;;5.88;5.00;;;256.10;2252.80;;;;;;5029956;28;20045;-61
2022/01/02 03:40:24;;;;;;;8.30;4.43;;;256.00;2252.80;;;;;;5030101;28;20033;-61
2022/01/02 03:42:50;;;;;;;6.57;4.22;;;256.20;2252.80;;;;;;5030054;28;20037;-62
2022/01/02 03:45:16;;;;;;;8.18;4.57;;;256.20;2252.80;;;;;;5029693;28;20486;-62
2022/01/02 03:47:41;;;;;;;9.30;5.20;;;256.20;2252.80;;;;;;5030305;28;20052;-61
2022/01/02 03:50:08;;;;;;;13.10;7.22;;;256.10;2252.80;;;;;;5029726;28;20034;-62
2022/01/02 03:52:33;;;;;;;7.70;5.28;;;256.10;2252.80;;;;;;5030240;28;20022;-61
2022/01/02 03:54:59;;;;;;;9.60;7.00;;;256.20;2252.80;;;;;;5029728;28;20434;-61
2022/01/02 03:57:25;;;;;;;9.57;6.82;;;256.00;2252.80;;;;;;5029828;28;20029;-61
2022/01/02 03:59:51;;;;;;;9.88;6.57;;;256.00;2252.80;;;;;;5029992;28;20038;-60
2022/01/02 04:02:17;;;;;;;9.75;6.75;;;256.10;2252.80;;;;;;5029512;28;20045;-61
2022/01/02 04:04:42;;;;;;;164.55;117.68;;;256.00;2252.80;;;;;;5029924;28;20033;-61
2022/01/02 04:07:08;;;;;;;20.67;15.25;;;231.30;2252.80;;;;;;5030050;28;20025;-61
2022/01/02 04:09:34;;;;;;;8.80;6.60;;;231.20;2252.80;;;;;;5029903;28;20036;-61
2022/01/02 04:11:59;;;;;;;12.02;8.27;;;231.00;2252.80;;;;;;5029891;28;20388;-61
2022/01/02 04:14:25;;;;;;;11.18;9.13;;;231.00;2252.80;;;;;;5029589;28;20104;-61
2022/01/02 04:16:51;;;;;;;10.57;9.38;;;231.00;2252.80;;;;;;5029658;28;20460;-61
2022/01/02 04:19:17;;;;;;;13.70;10.73;;;231.00;2252.80;;;;;;5029601;28;20029;-61
2022/01/02 04:21:42;;;;;;;17.23;12.35;;;231.00;2252.80;;;;;;5029882;28;20053;-61
2022/01/02 04:24:08;;;;;;;15.30;10.77;;;231.00;2252.80;;;;;;5029946;28;20033;-61
2022/01/02 04:26:34;;;;;;;11.95;7.57;;;231.10;2252.80;;;;;;5033427;28;20040;-61
2022/01/02 04:29:00;;;;;;;25.95;17.73;;;231.10;2252.80;;;;;;5033551;28;20030;-61
2022/01/02 04:31:26;;;;;;;21.30;17.45;;;231.10;2252.80;;;;;;5032898;28;20030;-61
2022/01/02 04:33:51;;;;;;;22.65;18.00;;;231.10;2252.80;;;;;;5033364;28;20128;-61
2022/01/02 04:36:18;;;;;;;13.45;9.90;;;231.00;2252.80;;;;;;5033056;28;20097;-62
2022/01/02 04:38:45;;;;;;;17.15;12.00;;;231.00;2252.80;;;;;;5033270;28;20104;-62
2022/01/02 04:41:11;;;;;;;14.48;8.73;;;231.10;2252.80;;;;;;5033117;28;20033;-63
2022/01/02 04:43:37;;;;;;;12.20;7.60;;;231.10;2252.80;;;;;;5033197;28;20109;-61
2022/01/02 04:46:03;;;;;;;17.90;10.95;;;231.10;2252.80;;;;;;5033042;28;20534;-61
2022/01/02 04:48:28;;;;;;;19.50;14.60;;;230.90;2252.80;;;;;;5032878;28;20490;-62
2022/01/02 04:50:54;;;;;;;12.55;11.13;;;231.00;2252.80;;;;;;5033013;28;20557;-61
2022/01/02 04:53:21;;;;;;;12.48;9.70;;;230.80;2252.80;;;;;;5032929;28;20028;-61
2022/01/02 04:55:47;;;;;;;11.38;9.05;;;230.80;2252.80;;;;;;5032681;28;20022;-61
2022/01/02 04:58:13;;;;;;;11.32;8.65;;;230.90;2252.80;;;;;;5032914;28;20036;-61
2022/01/02 05:00:39;;;;;;;17.20;11.85;;;230.90;2252.80;;;;;;5032329;28;20037;-61
2022/01/02 05:03:04;;;;;;;13.40;8.18;;;230.80;2252.80;;;;;;5032715;28;20041;-60
2022/01/02 05:05:30;;;;;;;9.90;6.82;;;230.80;2252.80;;;;;;5032780;28;20037;-61
2022/01/02 05:07:56;;;;;;;10.70;7.50;;;230.60;2252.80;;;;;;5032740;28;20524;-62
2022/01/02 05:10:22;;;;;;;20.55;14.32;;;230.70;2252.80;;;;;;5032553;28;20033;-62
2022/01/02 05:12:47;;;;;;;14.50;9.10;;;230.60;2252.80;;;;;;5032423;28;20100;-61
2022/01/02 05:15:13;;;;;;;8.60;5.65;;;230.60;2252.80;;;;;;5032516;28;20021;-61
2022/01/02 05:17:39;;;;;;;10.77;6.82;;;230.40;2252.80;;;;;;5032557;28;20064;-61
2022/01/02 05:20:06;;;;;;;14.93;10.35;;;230.40;2252.80;;;;;;5032639;28;20037;-61
2022/01/02 05:22:31;;;;;;;15.52;8.77;;;230.50;2252.80;;;;;;5032340;28;20475;-61
2022/01/02 05:24:57;;;;;;;12.35;7.03;;;230.40;2252.80;;;;;;5032101;28;20052;-61
2022/01/02 05:27:23;;;;;;;11.05;7.18;;;230.40;2252.80;;;;;;5032540;28;20091;-61
2022/01/02 05:29:49;;;;;;;10.93;5.85;;;205.70;2252.80;;;;;;5032032;28;20048;-60
2022/01/02 05:32:15;;;;;;;9.25;6.38;;;205.60;2252.80;;;;;;5031993;28;20029;-61
2022/01/02 05:34:40;;;;;;;11.45;6.40;;;205.70;2252.80;;;;;;5032204;28;20380;-60
2022/01/02 05:37:06;;;;;;;10.02;6.40;;;205.60;2252.80;;;;;;5031318;28;20021;-61
2022/01/02 05:39:32;;;;;;;16.63;12.25;;;205.50;2252.80;;;;;;5031989;28;20447;-60
2022/01/02 05:41:57;;;;;;;19.27;11.00;;;205.50;2252.80;;;;;;5031845;28;20047;-61
2022/01/02 05:44:23;;;;;;;8.23;6.03;;;205.50;2252.80;;;;;;5032169;28;20110;-61
2022/01/02 05:46:49;;;;;;;9.40;6.93;;;205.40;2252.80;;;;;;5031604;28;20029;-60
2022/01/02 05:49:16;;;;;;;13.23;9.88;;;205.40;2252.80;;;;;;5031853;28;20048;-62
2022/01/02 05:51:42;;;;;;;9.20;6.20;;;205.40;2252.80;;;;;;5031760;28;20029;-61
2022/01/02 05:54:08;;;;;;;11.88;6.72;;;205.30;2252.80;;;;;;5031522;28;20053;-61
2022/01/02 05:56:34;;;;;;;9.35;6.43;;;205.10;2252.80;;;;;;5031766;28;20025;-61
2022/01/02 05:59:00;;;;;;;12.80;5.80;;;204.90;2252.80;;;;;;5031583;28;20026;-61
2022/01/02 06:01:26;;;;;;;10.63;6.30;;;180.10;2252.80;;;;;;5031048;28;20041;-61
2022/01/02 06:03:51;;;;;;;10.57;5.60;;;180.10;2252.80;;;;;;5031807;28;20530;-60
2022/01/02 06:06:18;;;;;;;9.77;6.22;;;180.10;2252.80;;;;;;5031418;28;20029;-61
2022/01/02 06:08:44;;;;;;;10.52;6.20;;;204.90;2252.80;;;;;;5031542;28;20044;-61
2022/01/02 06:11:10;;;;;;;8.13;6.10;;;205.00;2252.80;;;;;;5031528;28;20100;-61
2022/01/02 06:13:36;;;;;;;10.07;6.47;;;205.00;2252.80;;;;;;5031425;28;20033;-61
2022/01/02 06:16:02;;;;;;;8.68;6.57;;;205.10;2252.80;;;;;;5031395;28;20029;-60
2022/01/02 06:18:27;;;;;;;10.95;5.88;;;205.20;2252.80;;;;;;5031259;28;20061;-61
2022/01/02 06:20:53;;;;;;;8.88;5.70;;;205.30;2252.80;;;;;;5031283;28;20380;-61
2022/01/02 06:23:19;;;;;;;12.68;5.70;;;205.30;2252.80;;;;;;5030922;28;20033;-61
2022/01/02 06:25:45;;;;;;;9.30;6.35;;;205.10;2252.80;;;;;;5031531;28;20022;-61
2022/01/02 06:28:12;;;;;;;10.80;6.05;;;205.00;2252.80;;;;;;5037226;28;20032;-61
2022/01/02 06:30:37;;;;;;;27.70;18.73;;;204.90;2252.80;;;;;;5050950;28;20028;-60
2022/01/02 06:33:03;;;;;;;62.75;44.75;;;205.00;2252.80;;;;;;5050957;28;20509;-61
2022/01/02 06:35:34;;;;;;;29.75;21.95;;;205.10;2252.80;;;;;;5050645;28;20029;-61
2022/01/02 06:38:09;;;;;;;19.77;13.75;;;205.20;2252.80;;;;;;5050657;28;20029;-61
2022/01/02 06:40:35;;;;;;;35.75;30.10;;;205.30;2252.80;;;;;;5050941;28;20021;-61
2022/01/02 06:43:00;;;;;;;26.83;19.55;;;205.30;2252.80;;;;;;5050914;28;20036;-61
2022/01/02 06:45:26;;;;;;;20.25;12.82;;;205.50;2252.80;;;;;;5050509;28;20032;-61
2022/01/02 06:47:52;;;;;;;69.22;45.20;;;205.50;2252.80;;;;;;5050697;28;20060;-61
2022/01/02 06:50:17;;;;;;;39.90;26.92;;;205.50;2252.80;;;;;;5050389;28;20033;-60
2022/01/02 06:52:43;;;;;;;20.42;15.23;;;205.60;2252.80;;;;;;5050586;28;20021;-61
2022/01/02 06:55:09;;;;;;;23.95;20.23;;;205.70;2252.80;;;;;;5050664;28;20055;-61
2022/01/02 06:57:35;;;;;;;33.90;26.88;;;205.70;2252.80;;;;;;5050778;28;20548;-61
2022/01/02 07:00:02;;;;;;;17.60;10.43;;;205.70;2252.80;;;;;;5050437;28;20475;-60
2022/01/02 07:02:28;;;;;;;25.45;16.75;;;205.70;2252.80;;;;;;5042126;28;20045;-61
2022/01/02 07:04:54;;;;;;;17.92;11.70;;;205.60;2252.80;;;;;;5038733;28;20075;-61
2022/01/02 07:07:19;;;;;;;15.10;10.82;;;205.60;2252.80;;;;;;5034501;28;20026;-61
2022/01/02 07:09:45;;;;;;;25.45;18.73;;;205.70;2252.80;;;;;;5029519;28;20033;-61
2022/01/02 07:12:11;;;;;;;38.28;28.48;;;205.70;2252.80;;;;;;5030383;28;20116;-60
2022/01/02 07:14:36;;;;;;;17.75;12.88;;;205.70;2252.80;;;;;;5030525;28;20029;-61
2022/01/02 07:17:02;;;;;;;13.18;8.05;;;205.70;2252.80;;;;;;5030235;28;20018;-60
2022/01/02 07:19:28;;;;;;;10.95;6.97;;;205.70;2252.80;;;;;;5043880;28;20116;-61
2022/01/02 07:21:55;;;;;;;15.18;10.23;;;205.60;2252.80;;;;;;5050326;28;20059;-60
2022/01/02 07:24:20;;;;;;;14.00;9.38;;;205.60;2252.80;;;;;;5050255;28;20108;-61
2022/01/02 07:26:46;;;;;;;14.38;8.27;;;205.70;2252.80;;;;;;5050177;28;20491;-61
2022/01/02 07:29:15;;;;;;;11.65;7.85;;;230.40;2252.80;;;;;;5050101;28;20041;-61
2022/01/02 07:31:41;;;;;;;22.88;12.18;;;230.50;2252.80;;;;;;5050028;28;20029;-61
2022/01/02 07:34:07;;;;;;;15.05;10.35;;;230.60;2252.80;;;;;;5049994;28;20064;-61
2022/01/02 07:36:33;;;;;;;17.83;12.85;;;230.60;2252.80;;;;;;5049943;28;20048;-60
2022/01/02 07:38:59;;;;;;;16.23;9.93;;;230.70;2252.80;;;;;;5049844;28;20040;-61
2022/01/02 07:41:25;;;;;;;16.17;10.90;;;230.60;2252.80;;;;;;5050063;28;20025;-61
2022/01/02 07:43:53;;;;;;;17.58;12.15;;;230.60;2252.80;;;;;;5049982;28;20078;-61
2022/01/02 07:46:19;;;;;;;19.58;12.70;;;230.80;2252.80;;;;;;5049974;28;20139;-61
2022/01/02 07:48:45;;;;;;;16.23;12.60;;;230.90;2252.80;;;;;;5051406;28;20052;-61
2022/01/02 07:51:10;;;;;;;19.85;16.58;;;231.00;2252.80;;;;;;5051878;28;20144;-62
2022/01/02 07:53:36;;;;;;;23.65;18.02;;;231.10;2252.80;;;;;;5051738;28;20032;-61
2022/01/02 07:56:02;;;;;;;22.05;13.98;;;231.10;2252.80;;;;;;5049972;28;20447;-61
2022/01/02 07:58:28;;;;;;;18.25;12.25;;;231.10;2252.80;;;;;;5049783;28;20534;-61
2022/01/02 08:00:53;;;;;;;18.70;12.98;;;231.00;2252.80;;;;;;5052958;28;20048;-61
2022/01/02 08:03:19;;;;;;;16.20;12.07;;;231.00;2252.80;;;;;;5049275;28;20033;-61
2022/01/02 08:05:45;;;;;;;16.63;12.10;;;231.10;2252.80;;;;;;5053548;28;20029;-61
2022/01/02 08:08:10;;;;;;;16.17;12.45;;;231.10;2252.80;;;;;;5053742;28;20025;-61
2022/01/02 08:10:39;;;;;;;16.38;13.13;;;231.20;2252.80;;;;;;5053299;28;20037;-61
2022/01/02 08:13:04;;;;;;;20.40;13.18;;;231.30;2252.80;;;;;;5049906;28;20021;-61
2022/01/02 08:15:32;;;;;;;17.08;12.57;;;231.30;2252.80;;;;;;5041731;28;20864;-61
2022/01/02 08:17:58;;;;;;;27.33;17.90;;;256.10;2252.80;;;;;;5042886;28;20020;-62
2022/01/02 08:20:24;;;;;;;59.85;41.65;;;256.20;2252.80;;;;;;5041830;28;20025;-60
2022/01/02 08:22:50;;;;;;;84.43;58.60;;;256.20;2252.80;;;;;;5046280;28;20463;-61
2022/01/02 08:25:16;;;;;;;179.45;137.55;;;256.40;2252.80;;;;;;5041440;28;20036;-61
2022/01/02 08:27:41;;;;;;;166.27;119.07;;;256.40;2252.80;;;;;;5043254;28;20079;-60
2022/01/02 08:30:08;;;;;;;209.50;162.48;;;281.80;2278.40;;;;;;5041301;28;20552;-61
2022/01/02 08:32:33;;;;;;;184.63;144.65;;;307.40;2304.00;;;;;;5039019;28;20040;-61
2022/01/02 08:34:59;;;;;;;105.07;80.43;;;308.10;2304.00;;;;;;5051948;28;20025;-60
2022/01/02 08:37:25;;;;;;;99.72;77.85;;;307.90;2304.00;;;;;;5052810;28;20032;-61
2022/01/02 08:39:51;;;;;;;130.50;108.55;;;307.70;2304.00;;;;;;5053059;28;20025;-59
2022/01/02 08:42:17;;;;;;;93.00;69.57;;;307.40;2304.00;;;;;;5052801;28;20027;-60
2022/01/02 08:44:43;;;;;;;97.05;75.10;;;307.20;2304.00;;;;;;5052947;28;20017;-61
2022/01/02 08:47:10;;;;;;;104.35;84.30;;;307.80;2304.00;;;;;;5052893;28;20494;-61
2022/01/02 08:49:36;;;;;;;69.72;58.65;;;358.70;2329.60;;;;;;5052885;28;20037;-61
2022/01/02 08:52:03;;;;;;;34.95;29.75;;;384.60;2329.60;;;;;;5052621;28;20100;-60
2022/01/02 08:54:29;;;;;;;30.92;25.20;;;410.50;2201.60;;;;;;5052616;28;20113;-60
2022/01/02 08:56:54;;;;;;;29.33;25.63;;;460.80;2048.00;;;;;;5052737;28;20057;-60
2022/01/02 08:59:24;;;;;;;32.40;25.83;;;461.50;1945.60;;;;;;5052797;28;20045;-60
2022/01/02 09:01:51;;;;;;;35.63;27.75;;;486.70;1868.80;;;;;;5052257;28;20064;-60
2022/01/02 09:04:17;;;;;;;33.70;30.20;;;487.10;1766.40;;;;;;5052465;28;20025;-60
2022/01/02 09:06:43;;;;;;;31.80;28.45;;;487.20;1766.40;;;;;;5052625;28;20029;-61
2022/01/02 09:09:09;;;;;;;29.15;26.05;;;512.50;1740.80;;;;;;5052334;28;20036;-61
2022/01/02 09:11:35;;;;;;;35.65;31.77;;;512.80;1689.60;;;;;;5051450;28;20637;-61
2022/01/02 09:14:02;;;;;;;234.77;190.50;;;538.10;1664.00;;;;;;5052658;28;20470;-61
2022/01/02 09:16:28;;;;;;;397.45;301.35;;;537.80;1638.40;;;;;;5052272;28;20029;-60
2022/01/02 09:18:54;;;;;;;418.92;324.55;;;512.70;1638.40;;;;;;5052339;28;20031;-62
2022/01/02 09:21:20;;;;;;;255.07;204.80;;;538.00;1638.40;;;;;;5052337;28;20115;-60
2022/01/02 09:23:46;;;;;;;206.00;176.63;;;537.90;1612.80;;;;;;5052085;28;20028;-61
2022/01/02 09:26:12;;;;;;;340.20;281.77;;;512.80;1638.40;;;;;;5052433;28;20035;-60
2022/01/02 09:28:37;;;;;;;323.17;283.00;;;512.20;1664.00;;;;;;5051909;28;20079;-59
2022/01/02 09:31:03;;;;;;;361.48;322.42;;;486.90;1740.80;;;;;;5052052;28;20040;-60
2022/01/02 09:33:29;;;;;;;302.17;268.77;;;461.60;1792.00;;;;;;5051734;28;20040;-60
2022/01/02 09:35:55;;;;;;;292.77;252.90;;;460.90;1868.80;;;;;;5052042;28;20033;-61
2022/01/02 09:38:21;;;;;;;283.00;249.85;;;435.80;1920.00;;;;;;5051698;28;20028;-60
2022/01/02 09:40:47;;;;;;;271.08;233.85;;;435.30;1996.80;;;;;;5051723;28;20056;-61
2022/01/02 09:43:12;;;;;;;220.48;183.68;;;410.10;2099.20;;;;;;5051897;28;20040;-61
2022/01/02 09:45:41;;;;;;;263.80;205.75;;;409.70;2201.60;;;;;;5051698;28;20218;-61
2022/01/02 09:48:08;;;;;;;200.27;164.95;;;384.70;2329.60;;;;;;5051591;28;20032;-60
2022/01/02 09:50:35;;;;;;;169.15;136.63;;;384.40;2329.60;;;;;;5051736;28;20036;-62
2022/01/02 09:53:01;;;;;;;148.30;120.60;;;384.20;2329.60;;;;;;5051806;28;20056;-59
2022/01/02 09:55:27;;;;;;;135.50;111.00;;;384.00;2329.60;;;;;;5051458;28;20059;-60
2022/01/02 09:57:54;;;;;;;106.95;79.88;;;359.30;2329.60;;;;;;5051795;28;20550;-60
2022/01/02 10:00:20;;;;;;;115.45;90.28;;;359.30;2329.60;;;;;;5051319;28;20035;-56
2022/01/02 10:03:02;;;;;;;98.00;75.85;;;359.20;2329.60;;;;;;5051107;28;20507;-57
2022/01/02 10:05:47;;;;;;;81.68;63.78;;;359.10;2329.60;;;;;;5051144;28;20040;-57
2022/01/02 10:08:39;;;;;;;101.70;77.00;;;358.90;2329.60;;;;;;5051215;28;20036;-56
2022/01/02 10:11:23;;;;;;;109.93;82.15;;;359.00;2329.60;;;;;;5050896;28;20087;-57
2022/01/02 10:13:54;;;;;;;108.45;84.32;;;358.90;2329.60;;;;;;5051218;28;20021;-58
2022/01/02 10:16:31;;;;;;;95.22;70.88;;;358.90;2329.60;;;;;;5051000;28;20040;-55
2022/01/02 10:18:58;;;;;;;73.53;53.95;;;358.80;2329.60;;;;;;5051129;28;20055;-55
2022/01/02 10:21:39;;;;;;;72.20;53.05;;;358.80;2329.60;;;;;;5048822;28;20098;-55
2022/01/02 10:24:15;;;;;;;89.50;66.88;;;358.90;2329.60;;;;;;5050849;28;20029;-56
2022/01/02 10:27:01;;;;;;;70.97;51.83;;;358.80;2329.60;;;;;;5051117;28;20027;-57
2022/01/02 10:29:37;;;;;;;83.80;63.33;;;358.90;2329.60;;;;;;5050476;28;20486;-55
2022/01/02 10:32:24;;;;;;;88.03;67.18;;;358.90;2329.60;;;;;;5050586;28;20071;-58
2022/01/02 10:34:51;;;;;;;81.95;57.60;;;359.00;2329.60;;;;;;5050750;28;20110;-55
2022/01/02 10:37:26;;;;;;;75.10;55.35;;;359.10;2329.60;;;;;;5050724;28;20053;-58
2022/01/02 10:39:52;;;;;;;65.88;46.35;;;359.10;2329.60;;;;;;5050927;28;20048;-57
2022/01/02 10:42:20;;;;;;;55.65;39.88;;;359.10;2329.60;;;;;;5050583;28;20091;-57
2022/01/02 10:44:46;;;;;;;57.20;43.42;;;359.10;2329.60;;;;;;5050508;28;20059;-57
2022/01/02 10:47:20;;;;;;;57.70;43.40;;;359.20;2329.60;;;;;;5050639;28;20061;-57
2022/01/02 10:49:46;;;;;;;56.60;44.10;;;359.20;2329.60;;;;;;5050457;28;20040;-57
2022/01/02 10:52:19;;;;;;;53.45;36.97;;;359.10;2329.60;;;;;;5050449;28;20024;-57
2022/01/02 10:54:45;;;;;;;44.25;33.60;;;359.10;2329.60;;;;;;5050650;28;20033;-56
2022/01/02 10:57:12;;;;;;;44.75;28.08;;;359.20;2329.60;;;;;;5050529;28;20426;-56
2022/01/02 10:59:40;;;;;;;34.85;23.85;;;359.30;2329.60;;;;;;5050480;28;20029;-58
2022/01/02 11:02:07;;;;;;;45.45;28.23;;;359.20;2329.60;;;;;;5049706;28;20103;-58
2022/01/02 11:04:34;;;;;;;39.95;23.70;;;359.30;2329.60;;;;;;5050397;28;20494;-57
2022/01/02 11:07:02;;;;;;;33.45;25.00;;;384.00;2329.60;;;;;;5050047;28;20430;-56
2022/01/02 11:09:29;;;;;;;35.20;27.25;;;384.00;2329.60;;;;;;5050263;28;20045;-57
2022/01/02 11:11:56;;;;;;;30.25;19.85;;;359.30;2329.60;;;;;;5050369;28;20379;-57
2022/01/02 11:14:22;;;;;;;38.45;24.55;;;384.00;2329.60;;;;;;5050372;28;20052;-57
2022/01/02 11:16:48;;;;;;;45.20;29.08;;;384.00;2329.60;;;;;;5050213;28;20061;-58
2022/01/02 11:19:14;;;;;;;37.67;23.40;;;384.00;2329.60;;;;;;5050276;28;20021;-57
2022/01/02 11:21:44;;;;;;;35.75;23.40;;;384.10;2329.60;;;;;;5050058;28;20033;-58
2022/01/02 11:24:18;;;;;;;26.75;20.08;;;384.10;2329.60;;;;;;5050273;28;20056;-58
2022/01/02 11:26:57;;;;;;;30.35;20.65;;;384.10;2329.60;;;;;;5050471;28;20065;-57
2022/01/02 11:29:26;;;;;;;25.08;19.25;;;384.10;2329.60;;;;;;5050032;28;20114;-57
2022/01/02 11:31:52;;;;;;;36.65;24.15;;;384.10;2329.60;;;;;;5049770;28;20025;-58
2022/01/02 11:34:27;;;;;;;39.78;24.35;;;384.20;2329.60;;;;;;5049248;28;20025;-57
2022/01/02 11:37:13;;;;;;;26.92;17.17;;;384.30;2329.60;;;;;;5050049;28;20025;-57
2022/01/02 11:39:56;;;;;;;28.05;17.70;;;384.30;2329.60;;;;;;5049711;28;20510;-58
2022/01/02 11:42:42;;;;;;;36.90;26.42;;;384.40;2329.60;;;;;;5050036;28;20029;-57
2022/01/02 11:45:10;;;;;;;29.42;22.88;;;384.30;2329.60;;;;;;5050125;28;20041;-57
2022/01/02 11:47:46;;;;;;;38.20;29.52;;;384.30;2329.60;;;;;;5049705;28;20029;-57
2022/01/02 11:50:39;;;;;;;32.80;24.30;;;384.40;2329.60;;;;;;5049915;28;20033;-57
2022/01/02 11:53:14;;;;;;;35.50;24.00;;;384.40;2329.60;;;;;;5049712;28;20024;-57
2022/01/02 11:55:44;;;;;;;37.53;26.80;;;384.40;2329.60;;;;;;5049659;28;20037;-58
2022/01/02 11:58:10;;;;;;;25.55;19.52;;;384.40;2329.60;;;;;;5049797;28;20129;-57
2022/01/02 12:00:41;;;;;;;21.50;14.70;;;384.60;2329.60;;;;;;5049446;28;20029;-57
2022/01/02 12:03:53;;;;;;;26.10;22.30;;;384.60;2329.60;;;;;;5049612;28;20033;-57
2022/01/02 12:06:22;;;;;;;22.02;14.98;;;384.60;2329.60;;;;;;5049279;28;20147;-57
2022/01/02 12:08:53;;;;;;;21.48;15.20;;;384.70;2329.60;;;;;;5049388;28;20025;-57
2022/01/02 12:11:39;;;;;;;18.65;13.98;;;384.70;2329.60;;;;;;5049440;28;20386;-57
2022/01/02 12:14:15;;;;;;;23.50;16.60;;;384.60;2329.60;;;;;;5049729;28;20032;-56
2022/01/02 12:16:48;;;;;;;26.10;19.08;;;384.70;2329.60;;;;;;5049832;28;20118;-57